createdAt,value
2023-05-04T00:00:15.526Z,101061.59
2023-05-04T00:01:47.362Z,101066.09
2023-05-04T00:03:19.302Z,101069.75
2023-05-04T00:04:54.351Z,101068.94
2023-05-04T00:06:26.914Z,101065.44
2023-05-04T00:07:58.700Z,101072.66
2023-05-04T00:09:31.878Z,101073.63
2023-05-04T00:11:03.733Z,101070.16
2023-05-04T00:12:35.686Z,101068.44
2023-05-04T00:14:07.816Z,101066.81
2023-05-04T00:15:39.629Z,101061.53
2023-05-04T00:17:12.881Z,101060.75
2023-05-04T00:18:44.719Z,101059.06
2023-05-04T00:20:16.564Z,101059.09
2023-05-04T00:21:48.382Z,101060.13
2023-05-04T00:23:20.217Z,101061.97
2023-05-04T00:24:52.060Z,101062.94
2023-05-04T00:26:23.887Z,101061.22
2023-05-04T00:27:56.260Z,101050.59
2023-05-04T00:29:28.181Z,101058.66
2023-05-04T00:31:00.009Z,101055.19
2023-05-04T00:32:31.861Z,101051.72
2023-05-04T00:34:03.681Z,101046.44
2023-05-04T00:35:35.545Z,101056.34
2023-05-04T00:37:07.496Z,101056.34
2023-05-04T00:38:50.316Z,101054.72
2023-05-04T00:40:22.338Z,101051.25
2023-05-04T00:41:55.181Z,101058.44
2023-05-04T00:43:27.903Z,101049.63
2023-05-04T00:44:59.706Z,101053.28
2023-05-04T00:46:32.829Z,101046.22
2023-05-04T00:48:05.555Z,101048.13
2023-05-04T00:49:37.922Z,101049.97
2023-05-04T00:51:12.205Z,101050.94
2023-05-04T00:52:45.838Z,101050.19
2023-05-04T00:54:21.182Z,101056.50
2023-05-04T00:55:53.005Z,101053.94
2023-05-04T00:57:25.746Z,101049.63
2023-05-04T00:58:58.760Z,101058.50
2023-05-04T01:00:30.609Z,101047.97
2023-05-04T01:02:02.454Z,101043.59
2023-05-04T01:03:34.761Z,101042.75
2023-05-04T01:05:08.095Z,101044.66
2023-05-04T01:07:03.754Z,101047.50
2023-05-04T01:08:42.177Z,101046.56
2023-05-04T01:10:30.455Z,101044.03
2023-05-04T01:12:06.729Z,101044.03
2023-05-04T01:13:40.322Z,101036.97
2023-05-04T01:15:12.964Z,101033.47
2023-05-04T01:16:44.850Z,101037.06
2023-05-04T01:18:16.947Z,101035.34
2023-05-04T01:19:48.896Z,101045.13
2023-05-04T01:21:20.824Z,101037.19
2023-05-04T01:22:53.003Z,101036.38
2023-05-04T01:24:26.968Z,101033.69
2023-05-04T01:26:24.737Z,101028.63
2023-05-04T01:28:02.564Z,101034.75
2023-05-04T01:29:49.185Z,101033.06
2023-05-04T01:31:26.252Z,101032.19
2023-05-04T01:33:02.350Z,101034.91
2023-05-04T01:34:36.561Z,101039.38
2023-05-04T01:36:08.570Z,101035.88
2023-05-04T01:37:40.973Z,101034.16
2023-05-04T01:39:12.820Z,101043.03
2023-05-04T01:40:44.666Z,101041.38
2023-05-04T01:42:17.890Z,101041.41
2023-05-04T01:43:50.064Z,101043.28
2023-05-04T01:45:22.101Z,101038.88
2023-05-04T01:46:53.929Z,101035.41
2023-05-04T01:48:28.400Z,101038.97
2023-05-04T01:50:00.444Z,101042.59
2023-05-04T01:51:32.249Z,101041.72
2023-05-04T01:53:04.048Z,101044.47
2023-05-04T01:54:37.439Z,101040.97
2023-05-04T01:56:09.438Z,101035.72
2023-05-04T01:57:41.267Z,101035.75
2023-05-04T01:59:13.146Z,101025.19
2023-05-04T02:00:46.483Z,101041.16
2023-05-04T02:02:18.342Z,101036.72
2023-05-04T02:03:50.339Z,101034.06
2023-05-04T02:05:22.335Z,101035.00
2023-05-04T02:06:54.148Z,101033.28
2023-05-04T02:08:26.671Z,101030.66
2023-05-04T02:09:58.515Z,101033.31
2023-05-04T02:11:30.382Z,101032.44
2023-05-04T02:13:02.245Z,101033.38
2023-05-04T02:14:34.589Z,101032.50
2023-05-04T02:16:06.933Z,101032.53
2023-05-04T02:17:38.935Z,101035.19
2023-05-04T02:19:11.135Z,101040.59
2023-05-04T02:20:43.017Z,101037.97
2023-05-04T02:22:14.803Z,101039.75
2023-05-04T02:23:46.604Z,101038.03
2023-05-04T02:25:18.614Z,101033.63
2023-05-04T02:26:50.436Z,101037.16
2023-05-04T02:28:22.644Z,101035.41
2023-05-04T02:29:54.640Z,101039.81
2023-05-04T02:31:26.475Z,101034.50
2023-05-04T02:32:58.419Z,101037.16
2023-05-04T02:34:30.316Z,101037.16
2023-05-04T02:36:02.124Z,101036.31
2023-05-04T02:37:34.020Z,101035.41
2023-05-04T02:39:08.719Z,101030.09
2023-05-04T02:40:41.639Z,101032.75
2023-05-04T02:42:14.270Z,101040.72
2023-05-04T02:43:46.078Z,101037.25
2023-05-04T02:45:18.090Z,101038.13
2023-05-04T02:46:49.923Z,101039.91
2023-05-04T02:48:21.721Z,101046.13
2023-05-04T02:49:53.698Z,101043.53
2023-05-04T02:51:25.558Z,101040.88
2023-05-04T02:52:57.349Z,101043.66
2023-05-04T02:54:29.186Z,101044.59
2023-05-04T02:56:01.008Z,101057.03
2023-05-04T02:57:32.998Z,101055.34
2023-05-04T02:59:04.983Z,101044.81
2023-05-04T03:00:36.987Z,101053.72
2023-05-04T03:02:08.812Z,101045.81
2023-05-04T03:03:40.583Z,101047.63
2023-05-04T03:05:12.405Z,101044.16
2023-05-04T03:06:44.224Z,101044.22
2023-05-04T03:08:16.302Z,101038.06
2023-05-04T03:09:48.231Z,101040.72
2023-05-04T03:11:20.103Z,101042.56
2023-05-04T03:12:52.039Z,101054.97
2023-05-04T03:14:24.451Z,101043.47
2023-05-04T03:15:56.807Z,101043.53
2023-05-04T03:17:28.749Z,101043.53
2023-05-04T03:19:01.066Z,101047.16
2023-05-04T03:20:32.900Z,101046.28
2023-05-04T03:22:06.448Z,101046.31
2023-05-04T03:23:38.433Z,101042.00
2023-05-04T03:25:10.246Z,101043.75
2023-05-04T03:26:42.064Z,101039.38
2023-05-04T03:28:14.073Z,101036.72
2023-05-04T03:29:47.140Z,101036.78
2023-05-04T03:31:19.430Z,101042.13
2023-05-04T03:32:54.608Z,101033.25
2023-05-04T03:34:26.613Z,101036.81
2023-05-04T03:36:04.258Z,101040.34
2023-05-04T03:37:36.252Z,101041.31
2023-05-04T03:39:08.082Z,101037.78
2023-05-04T03:40:40.600Z,101045.75
2023-05-04T03:42:12.423Z,101036.91
2023-05-04T03:43:44.250Z,101040.50
2023-05-04T03:45:16.572Z,101036.00
2023-05-04T03:46:48.385Z,101036.91
2023-05-04T03:48:20.568Z,101034.25
2023-05-04T03:49:53.202Z,101033.38
2023-05-04T03:51:26.332Z,101030.72
2023-05-04T03:52:58.157Z,101029.88
2023-05-04T03:54:31.840Z,101031.66
2023-05-04T03:56:03.745Z,101034.31
2023-05-04T03:57:36.312Z,101036.13
2023-05-04T03:59:08.116Z,101033.47
2023-05-04T04:00:39.998Z,101034.34
2023-05-04T04:02:17.436Z,101039.66
2023-05-04T04:03:49.383Z,101035.28
2023-05-04T04:05:23.109Z,101034.34
2023-05-04T04:06:57.130Z,101034.34
2023-05-04T04:08:29.860Z,101029.97
2023-05-04T04:10:02.058Z,101034.31
2023-05-04T04:11:35.090Z,101024.66
2023-05-04T04:13:06.978Z,101028.13
2023-05-04T04:14:38.892Z,101026.34
2023-05-04T04:16:10.789Z,101036.91
2023-05-04T04:17:42.701Z,101026.34
2023-05-04T04:19:14.786Z,101031.69
2023-05-04T04:20:46.811Z,101031.59
2023-05-04T04:22:18.658Z,101029.81
2023-05-04T04:23:50.443Z,101031.56
2023-05-04T04:25:22.811Z,101027.94
2023-05-04T04:26:54.676Z,101030.53
2023-05-04T04:28:26.504Z,101030.53
2023-05-04T04:29:58.492Z,101027.81
2023-05-04T04:31:30.802Z,101019.81
2023-05-04T04:33:03.838Z,101030.34
2023-05-04T04:34:35.888Z,101032.91
2023-05-04T04:36:08.276Z,101034.59
2023-05-04T04:37:40.210Z,101032.66
2023-05-04T04:39:12.139Z,101031.59
2023-05-04T04:40:44.069Z,101027.03
2023-05-04T04:42:16.181Z,101033.00
2023-05-04T04:43:48.201Z,101027.50
2023-05-04T04:45:20.687Z,101023.69
2023-05-04T04:46:53.032Z,101017.34
2023-05-04T04:48:26.033Z,101033.06
2023-05-04T04:49:58.255Z,101031.09
2023-05-04T04:51:30.128Z,101036.16
2023-05-04T04:53:01.905Z,101039.47
2023-05-04T04:54:34.052Z,101035.66
2023-05-04T04:56:07.549Z,101037.19
2023-05-04T04:57:39.341Z,101040.56
2023-05-04T04:59:11.252Z,101037.63
2023-05-04T05:00:43.114Z,101038.25
2023-05-04T05:02:15.113Z,101038.97
2023-05-04T05:03:47.205Z,101037.84
2023-05-04T05:05:19.011Z,101032.31
2023-05-04T05:06:51.753Z,101036.47
2023-05-04T05:08:24.246Z,101034.47
2023-05-04T05:09:56.129Z,101035.03
2023-05-04T05:11:27.931Z,101035.63
2023-05-04T05:12:59.754Z,101045.09
2023-05-04T05:14:35.365Z,101032.34
2023-05-04T05:16:07.234Z,101030.13
2023-05-04T05:17:39.453Z,101030.44
2023-05-04T05:19:11.314Z,101034.88
2023-05-04T05:20:43.087Z,101021.44
2023-05-04T05:22:14.876Z,101026.34
2023-05-04T05:23:46.680Z,101023.91
2023-05-04T05:25:19.526Z,101019.41
2023-05-04T05:26:53.151Z,101019.19
2023-05-04T05:28:25.064Z,101019.75
2023-05-04T05:29:57.520Z,101028.09
2023-05-04T05:31:29.434Z,101023.22
2023-05-04T05:33:01.384Z,101028.03
2023-05-04T05:34:33.638Z,101018.50
2023-05-04T05:36:06.298Z,101021.34
2023-05-04T05:37:38.225Z,101019.75
2023-05-04T05:39:10.036Z,101018.13
2023-05-04T05:40:41.946Z,101013.88
2023-05-04T05:42:13.928Z,101027.56
2023-05-04T05:43:45.736Z,101018.72
2023-05-04T05:45:17.562Z,101013.53
2023-05-04T05:46:49.613Z,101020.97
2023-05-04T05:48:21.518Z,101014.94
2023-05-04T05:49:53.577Z,101007.94
2023-05-04T05:51:25.585Z,101010.19
2023-05-04T05:52:57.381Z,101008.78
2023-05-04T05:54:31.792Z,101008.25
2023-05-04T05:56:03.667Z,101010.53
2023-05-04T05:57:35.482Z,101015.47
2023-05-04T05:59:07.302Z,101018.78
2023-05-04T06:00:39.184Z,101011.38
2023-05-04T06:02:14.769Z,101008.72
2023-05-04T06:03:47.261Z,101006.22
2023-05-04T06:05:19.484Z,101007.41
2023-05-04T06:06:51.289Z,101003.72
2023-05-04T06:08:23.119Z,101011.00
2023-05-04T06:09:54.944Z,101002.25
2023-05-04T06:11:27.520Z,100998.69
2023-05-04T06:12:59.671Z,101001.50
2023-05-04T06:14:31.461Z,100989.25
2023-05-04T06:16:03.557Z,100992.91
2023-05-04T06:17:35.754Z,100987.91
2023-05-04T06:19:07.623Z,100989.25
2023-05-04T06:20:39.410Z,100979.69
2023-05-04T06:22:11.221Z,100990.97
2023-05-04T06:23:43.305Z,100990.69
2023-05-04T06:25:15.102Z,100989.09
2023-05-04T06:26:46.932Z,100994.97
2023-05-04T06:28:19.047Z,100983.78
2023-05-04T06:29:50.898Z,100984.16
2023-05-04T06:31:24.400Z,100985.56
2023-05-04T06:32:56.355Z,100990.50
2023-05-04T06:34:28.171Z,100990.31
2023-05-04T06:36:00.114Z,100978.06
2023-05-04T06:37:32.529Z,100981.47
2023-05-04T06:39:04.330Z,100976.66
2023-05-04T06:40:36.398Z,100979.88
2023-05-04T06:42:08.314Z,100982.38
2023-05-04T06:43:44.125Z,100973.13
2023-05-04T06:45:15.993Z,100976.94
2023-05-04T06:46:47.849Z,100976.53
2023-05-04T06:48:19.652Z,100975.47
2023-05-04T06:49:51.480Z,100977.63
2023-05-04T06:51:23.343Z,100975.97
2023-05-04T06:53:03.899Z,100982.19
2023-05-04T06:54:36.112Z,100973.56
2023-05-04T06:56:08.358Z,100981.34
2023-05-04T06:57:40.332Z,100980.06
2023-05-04T06:59:12.222Z,100981.13
2023-05-04T07:00:44.233Z,100983.56
2023-05-04T07:02:17.063Z,100978.81
2023-05-04T07:03:49.151Z,100973.41
2023-05-04T07:05:22.549Z,100968.97
2023-05-04T07:06:54.354Z,100963.91
2023-05-04T07:08:26.230Z,100971.94
2023-05-04T07:09:58.056Z,100971.63
2023-05-04T07:11:31.117Z,100954.91
2023-05-04T07:13:03.056Z,100961.28
2023-05-04T07:14:35.321Z,100959.56
2023-05-04T07:16:09.159Z,100961.97
2023-05-04T07:17:41.450Z,100960.28
2023-05-04T07:19:13.421Z,100959.56
2023-05-04T07:20:45.207Z,100958.88
2023-05-04T07:22:17.005Z,100950.84
2023-05-04T07:23:51.354Z,100954.78
2023-05-04T07:25:28.593Z,100949.03
2023-05-04T07:27:01.334Z,100951.22
2023-05-04T07:28:33.520Z,100959.44
2023-05-04T07:30:07.529Z,100943.84
2023-05-04T07:31:39.409Z,100940.25
2023-05-04T07:33:11.457Z,100942.78
2023-05-04T07:34:46.681Z,100940.22
2023-05-04T07:36:18.650Z,100938.81
2023-05-04T07:37:50.908Z,100934.72
2023-05-04T07:39:23.625Z,100931.63
2023-05-04T07:40:56.139Z,100933.13
2023-05-04T07:42:28.716Z,100932.28
2023-05-04T07:44:00.529Z,100931.38
2023-05-04T07:45:32.341Z,100929.84
2023-05-04T07:47:04.225Z,100937.53
2023-05-04T07:48:36.370Z,100938.03
2023-05-04T07:50:08.539Z,100941.94
2023-05-04T07:51:40.360Z,100942.28
2023-05-04T07:53:13.070Z,100937.66
2023-05-04T07:54:44.917Z,100942.28
2023-05-04T07:56:16.708Z,100939.34
2023-05-04T07:57:48.566Z,100942.28
2023-05-04T07:59:20.581Z,100938.66
2023-05-04T08:00:52.435Z,100943.28
2023-05-04T08:02:24.327Z,100925.50
2023-05-04T08:03:56.388Z,100927.06
2023-05-04T08:05:28.204Z,100931.69
2023-05-04T08:07:00.512Z,100936.13
2023-05-04T08:08:33.656Z,100932.03
2023-05-04T08:10:06.000Z,100932.41
2023-05-04T08:11:39.764Z,100928.47
2023-05-04T08:13:11.697Z,100929.19
2023-05-04T08:14:47.169Z,100925.75
2023-05-04T08:16:19.065Z,100925.94
2023-05-04T08:17:51.550Z,100925.59
2023-05-04T08:19:23.474Z,100922.69
2023-05-04T08:20:55.538Z,100920.81
2023-05-04T08:22:27.429Z,100924.38
2023-05-04T08:23:59.253Z,100925.22
2023-05-04T08:25:31.063Z,100918.19
2023-05-04T08:27:08.086Z,100922.94
2023-05-04T08:28:41.831Z,100908.34
2023-05-04T08:30:14.021Z,100914.81
2023-05-04T08:31:45.959Z,100909.94
2023-05-04T08:33:17.817Z,100908.50
2023-05-04T08:34:50.802Z,100906.56
2023-05-04T08:36:22.611Z,100904.47
2023-05-04T08:37:54.651Z,100905.44
2023-05-04T08:39:26.467Z,100908.41
2023-05-04T08:40:58.259Z,100910.59
2023-05-04T08:42:31.758Z,100903.50
2023-05-04T08:44:07.468Z,100905.97
2023-05-04T08:45:40.540Z,100899.22
2023-05-04T08:47:12.550Z,100899.75
2023-05-04T08:48:47.637Z,100898.59
2023-05-04T08:50:19.688Z,100893.84
2023-05-04T08:51:52.127Z,100898.00
2023-05-04T08:53:24.633Z,100900.25
2023-05-04T08:54:57.137Z,100892.88
2023-05-04T08:56:29.137Z,100904.22
2023-05-04T08:58:04.859Z,100896.25
2023-05-04T08:59:37.846Z,100891.94
2023-05-04T09:01:10.818Z,100896.00
2023-05-04T09:02:43.392Z,100895.09
2023-05-04T09:04:15.838Z,100891.13
2023-05-04T09:05:47.841Z,100890.56
2023-05-04T09:07:21.844Z,100890.75
2023-05-04T09:08:53.760Z,100894.00
2023-05-04T09:10:28.155Z,100902.72
2023-05-04T09:12:01.279Z,100898.44
2023-05-04T09:13:34.321Z,100895.69
2023-05-04T09:15:15.585Z,100891.41
2023-05-04T09:16:47.541Z,100894.25
2023-05-04T09:18:20.283Z,100895.59
2023-05-04T09:20:03.421Z,100891.69
2023-05-04T09:21:35.384Z,100899.75
2023-05-04T09:23:09.153Z,100895.09
2023-05-04T09:24:41.148Z,100898.00
2023-05-04T09:26:13.087Z,100889.63
2023-05-04T09:27:53.849Z,100888.41
2023-05-04T09:29:25.861Z,100888.69
2023-05-04T09:31:01.190Z,100896.16
2023-05-04T09:32:45.025Z,100882.25
2023-05-04T09:34:18.700Z,100883.59
2023-05-04T09:35:50.691Z,100888.50
2023-05-04T09:37:22.998Z,100889.69
2023-05-04T09:38:55.420Z,100882.09
2023-05-04T09:40:35.631Z,100886.44
2023-05-04T09:42:16.489Z,100891.59
2023-05-04T09:43:48.255Z,100893.75
2023-05-04T09:45:20.551Z,100887.72
2023-05-04T09:46:56.818Z,100884.78
2023-05-04T09:48:29.422Z,100884.41
2023-05-04T09:50:25.566Z,100886.09
2023-05-04T09:51:58.748Z,100878.78
2023-05-04T09:53:31.831Z,100866.78
2023-05-04T09:55:05.784Z,100871.06
2023-05-04T09:56:42.111Z,100870.84
2023-05-04T09:58:16.991Z,100872.94
2023-05-04T09:59:49.228Z,100869.72
2023-05-04T10:01:21.322Z,100866.22
2023-05-04T10:02:53.782Z,100860.81
2023-05-04T10:04:26.197Z,100863.63
2023-05-04T10:05:59.862Z,100855.94
2023-05-04T10:07:32.482Z,100863.69
2023-05-04T10:09:04.286Z,100849.50
2023-05-04T10:10:39.630Z,100847.59
2023-05-04T10:12:12.317Z,100852.56
2023-05-04T10:13:44.641Z,100847.06
2023-05-04T10:15:18.102Z,100848.56
2023-05-04T10:17:02.141Z,100854.50
2023-05-04T10:18:55.734Z,100853.16
2023-05-04T10:20:38.691Z,100853.03
2023-05-04T10:22:32.265Z,100847.66
2023-05-04T10:24:30.188Z,100836.28
2023-05-04T10:26:33.500Z,100837.44
2023-05-04T10:28:23.951Z,100835.34
2023-05-04T10:29:56.146Z,100830.88
2023-05-04T10:31:38.671Z,100832.09
2023-05-04T10:33:12.295Z,100821.63
2023-05-04T10:34:44.319Z,100821.41
2023-05-04T10:36:16.447Z,100816.84
2023-05-04T10:37:55.670Z,100811.66
2023-05-04T10:39:32.359Z,100811.53
2023-05-04T10:41:14.831Z,100811.34
2023-05-04T10:42:46.689Z,100802.41
2023-05-04T10:44:18.505Z,100803.06
2023-05-04T10:45:50.706Z,100804.03
2023-05-04T10:47:35.807Z,100797.72
2023-05-04T10:49:17.924Z,100790.41
2023-05-04T10:50:50.622Z,100788.59
2023-05-04T10:52:22.533Z,100787.34
2023-05-04T10:53:54.616Z,100787.59
2023-05-04T10:55:26.649Z,100787.41
2023-05-04T10:57:17.347Z,100785.75
2023-05-04T10:58:49.383Z,100796.69
2023-05-04T11:00:22.076Z,100787.19
2023-05-04T11:01:54.050Z,100786.00
2023-05-04T11:03:27.104Z,100784.31
2023-05-04T11:05:05.359Z,100781.00
2023-05-04T11:06:38.596Z,100774.69
2023-05-04T11:08:20.265Z,100770.47
2023-05-04T11:09:52.211Z,100765.88
2023-05-04T11:11:24.611Z,100758.31
2023-05-04T11:13:05.562Z,100769.56
2023-05-04T11:14:42.834Z,100762.66
2023-05-04T11:16:23.374Z,100754.19
2023-05-04T11:17:55.356Z,100762.03
2023-05-04T11:19:27.226Z,100763.69
2023-05-04T11:20:59.099Z,100755.38
2023-05-04T11:22:32.216Z,100755.38
2023-05-04T11:24:04.300Z,100746.03
2023-05-04T11:25:37.749Z,100747.69
2023-05-04T11:27:21.440Z,100752.94
2023-05-04T11:28:53.434Z,100749.09
2023-05-04T11:30:35.243Z,100740.56
2023-05-04T11:32:07.423Z,100741.19
2023-05-04T11:33:39.231Z,100732.88
2023-05-04T11:35:16.727Z,100740.50
2023-05-04T11:36:49.976Z,100727.59
2023-05-04T11:38:21.989Z,100722.94
2023-05-04T11:39:55.134Z,100731.84
2023-05-04T11:41:27.404Z,100713.88
2023-05-04T11:42:59.969Z,100731.47
2023-05-04T11:44:32.021Z,100726.19
2023-05-04T11:46:06.300Z,100727.47
2023-05-04T11:47:38.941Z,100724.72
2023-05-04T11:49:10.788Z,100728.13
2023-05-04T11:50:42.839Z,100721.97
2023-05-04T11:52:14.673Z,100724.50
2023-05-04T11:53:46.650Z,100719.78
2023-05-04T11:55:30.947Z,100717.34
2023-05-04T11:57:04.303Z,100714.81
2023-05-04T11:58:36.663Z,100714.13
2023-05-04T12:00:09.340Z,100710.25
2023-05-04T12:01:41.238Z,100712.16
2023-05-04T12:03:15.163Z,100710.06
2023-05-04T12:04:47.116Z,100707.72
2023-05-04T12:06:19.073Z,100712.16
2023-05-04T12:07:50.948Z,100707.94
2023-05-04T12:09:22.753Z,100695.53
2023-05-04T12:11:26.330Z,100704.41
2023-05-04T12:12:58.466Z,100696.88
2023-05-04T12:14:30.266Z,100698.41
2023-05-04T12:16:21.116Z,100703.09
2023-05-04T12:17:53.007Z,100691.47
2023-05-04T12:19:24.860Z,100690.00
2023-05-04T12:20:56.692Z,100700.63
2023-05-04T12:22:30.467Z,100697.88
2023-05-04T12:24:03.624Z,100687.50
2023-05-04T12:25:41.360Z,100693.22
2023-05-04T12:27:19.561Z,100689.22
2023-05-04T12:28:51.572Z,100688.16
2023-05-04T12:30:23.455Z,100677.78
2023-05-04T12:31:55.314Z,100681.22
2023-05-04T12:33:27.391Z,100679.06
2023-05-04T12:34:59.160Z,100684.19
2023-05-04T12:36:30.944Z,100682.09
2023-05-04T12:38:02.708Z,100678.72
2023-05-04T12:39:34.621Z,100665.38
2023-05-04T12:41:07.680Z,100667.97
2023-05-04T12:42:42.420Z,100666.50
2023-05-04T12:44:14.533Z,100663.19
2023-05-04T12:45:46.589Z,100668.50
2023-05-04T12:47:18.681Z,100660.25
2023-05-04T12:48:50.503Z,100659.66
2023-05-04T12:50:22.367Z,100663.47
2023-05-04T12:51:54.214Z,100659.28
2023-05-04T12:53:30.085Z,100658.81
2023-05-04T12:55:01.918Z,100658.63
2023-05-04T12:56:34.397Z,100659.28
2023-05-04T12:58:14.399Z,100655.47
2023-05-04T12:59:46.175Z,100652.72
2023-05-04T13:01:18.310Z,100656.13
2023-05-04T13:02:50.185Z,100654.41
2023-05-04T13:04:22.107Z,100651.44
2023-05-04T13:05:54.259Z,100649.53
2023-05-04T13:07:26.110Z,100648.47
2023-05-04T13:08:57.945Z,100648.47
2023-05-04T13:10:30.444Z,100648.28
2023-05-04T13:12:02.279Z,100634.06
2023-05-04T13:13:34.458Z,100639.59
2023-05-04T13:15:06.923Z,100643.19
2023-05-04T13:16:38.903Z,100639.59
2023-05-04T13:18:10.687Z,100640.00
2023-05-04T13:19:42.474Z,100636.59
2023-05-04T13:21:14.298Z,100633.84
2023-05-04T13:22:48.076Z,100631.72
2023-05-04T13:24:19.922Z,100633.16
2023-05-04T13:25:52.522Z,100626.81
2023-05-04T13:27:24.551Z,100630.19
2023-05-04T13:28:56.331Z,100632.72
2023-05-04T13:30:28.354Z,100625.09
2023-05-04T13:32:00.219Z,100630.63
2023-05-04T13:33:33.022Z,100628.03
2023-05-04T13:35:05.707Z,100619.59
2023-05-04T13:36:37.679Z,100624.69
2023-05-04T13:38:09.510Z,100615.34
2023-05-04T13:39:41.956Z,100614.72
2023-05-04T13:41:13.772Z,100612.63
2023-05-04T13:42:45.631Z,100615.78
2023-05-04T13:44:17.414Z,100611.78
2023-05-04T13:45:49.332Z,100612.00
2023-05-04T13:47:21.364Z,100604.78
2023-05-04T13:48:54.688Z,100607.13
2023-05-04T13:50:28.211Z,100598.03
2023-05-04T13:52:00.002Z,100604.84
2023-05-04T13:53:31.780Z,100599.97
2023-05-04T13:55:04.179Z,100594.47
2023-05-04T13:56:36.432Z,100584.50
2023-05-04T13:58:08.295Z,100584.06
2023-05-04T13:59:40.308Z,100587.66
2023-05-04T14:01:12.789Z,100580.66
2023-05-04T14:02:44.659Z,100585.53
2023-05-04T14:04:16.730Z,100588.28
2023-05-04T14:05:48.642Z,100584.47
2023-05-04T14:07:20.542Z,100573.22
2023-05-04T14:08:52.423Z,100584.22
2023-05-04T14:10:24.278Z,100576.97
2023-05-04T14:11:56.098Z,100574.19
2023-05-04T14:13:28.136Z,100565.88
2023-05-04T14:15:01.092Z,100566.94
2023-05-04T14:16:34.437Z,100566.50
2023-05-04T14:18:07.402Z,100569.25
2023-05-04T14:19:39.801Z,100563.53
2023-05-04T14:21:11.649Z,100568.19
2023-05-04T14:22:43.827Z,100566.09
2023-05-04T14:24:15.667Z,100556.34
2023-05-04T14:25:52.053Z,100559.16
2023-05-04T14:27:24.159Z,100557.25
2023-05-04T14:28:56.133Z,100554.31
2023-05-04T14:30:28.131Z,100561.94
2023-05-04T14:32:01.156Z,100548.59
2023-05-04T14:33:33.030Z,100542.44
2023-05-04T14:35:10.028Z,100552.63
2023-05-04T14:36:42.107Z,100544.97
2023-05-04T14:38:13.990Z,100542.00
2023-05-04T14:39:45.842Z,100544.13
2023-05-04T14:41:17.891Z,100537.34
2023-05-04T14:42:49.688Z,100534.38
2023-05-04T14:44:22.863Z,100532.69
2023-05-04T14:45:56.676Z,100528.88
2023-05-04T14:47:29.294Z,100530.81
2023-05-04T14:49:01.285Z,100527.84
2023-05-04T14:50:33.146Z,100532.53
2023-05-04T14:52:05.173Z,100530.19
2023-05-04T14:53:39.581Z,100525.53
2023-05-04T14:55:11.802Z,100518.34
2023-05-04T14:56:43.619Z,100518.75
2023-05-04T14:58:16.184Z,100509.22
2023-05-04T14:59:48.164Z,100519.56
2023-05-04T15:01:20.000Z,100508.13
2023-05-04T15:02:51.956Z,100512.38
2023-05-04T15:04:23.854Z,100510.22
2023-05-04T15:05:55.837Z,100515.53
2023-05-04T15:07:27.660Z,100497.06
2023-05-04T15:08:59.763Z,100508.09
2023-05-04T15:10:31.664Z,100510.00
2023-05-04T15:12:03.747Z,100511.31
2023-05-04T15:13:35.867Z,100511.53
2023-05-04T15:15:08.135Z,100503.91
2023-05-04T15:16:40.018Z,100505.19
2023-05-04T15:18:12.729Z,100509.19
2023-05-04T15:19:44.773Z,100504.34
2023-05-04T15:21:16.660Z,100503.50
2023-05-04T15:22:53.872Z,100501.59
2023-05-04T15:24:26.003Z,100503.25
2023-05-04T15:25:57.903Z,100496.25
2023-05-04T15:27:29.739Z,100494.56
2023-05-04T15:29:02.098Z,100491.19
2023-05-04T15:30:34.011Z,100497.09
2023-05-04T15:32:06.169Z,100495.66
2023-05-04T15:33:38.184Z,100485.88
2023-05-04T15:35:10.047Z,100492.25
2023-05-04T15:36:41.876Z,100484.19
2023-05-04T15:38:13.720Z,100487.16
2023-05-04T15:39:45.539Z,100482.91
2023-05-04T15:41:17.344Z,100487.78
2023-05-04T15:42:49.140Z,100482.69
2023-05-04T15:44:24.750Z,100479.69
2023-05-04T15:45:56.693Z,100479.06
2023-05-04T15:47:28.617Z,100478.84
2023-05-04T15:49:00.870Z,100475.84
2023-05-04T15:50:33.271Z,100478.41
2023-05-04T15:52:05.392Z,100474.38
2023-05-04T15:53:37.217Z,100469.03
2023-05-04T15:55:23.361Z,100462.03
2023-05-04T15:56:56.853Z,100462.66
2023-05-04T15:58:28.669Z,100459.41
2023-05-04T16:00:02.685Z,100470.13
2023-05-04T16:01:39.181Z,100462.69
2023-05-04T16:03:11.586Z,100459.88
2023-05-04T16:04:43.512Z,100463.19
2023-05-04T16:06:15.906Z,100459.28
2023-05-04T16:07:47.726Z,100465.72
2023-05-04T16:09:20.919Z,100467.13
2023-05-04T16:10:53.715Z,100456.91
2023-05-04T16:12:26.193Z,100457.63
2023-05-04T16:13:58.036Z,100466.38
2023-05-04T16:15:31.051Z,100453.19
2023-05-04T16:17:03.375Z,100453.06
2023-05-04T16:18:35.264Z,100453.38
2023-05-04T16:20:08.429Z,100456.06
2023-05-04T16:21:40.504Z,100442.66
2023-05-04T16:23:16.710Z,100449.69
2023-05-04T16:24:48.562Z,100453.59
2023-05-04T16:26:20.360Z,100457.03
2023-05-04T16:27:53.277Z,100450.13
2023-05-04T16:29:25.254Z,100454.66
2023-05-04T16:30:57.105Z,100458.75
2023-05-04T16:32:28.934Z,100456.09
2023-05-04T16:34:00.770Z,100457.97
2023-05-04T16:35:32.675Z,100447.69
2023-05-04T16:37:04.615Z,100457.84
2023-05-04T16:38:36.451Z,100455.38
2023-05-04T16:40:17.959Z,100447.44
2023-05-04T16:41:49.769Z,100450.66
2023-05-04T16:43:22.436Z,100450.91
2023-05-04T16:44:54.297Z,100444.78
2023-05-04T16:46:26.293Z,100446.91
2023-05-04T16:47:58.852Z,100446.31
2023-05-04T16:49:30.851Z,100449.28
2023-05-04T16:51:05.252Z,100441.31
2023-05-04T16:52:37.458Z,100442.41
2023-05-04T16:54:09.354Z,100440.59
2023-05-04T16:55:41.278Z,100443.53
2023-05-04T16:57:13.059Z,100441.22
2023-05-04T16:58:44.885Z,100435.78
2023-05-04T17:00:17.168Z,100437.31
2023-05-04T17:01:49.107Z,100428.16
2023-05-04T17:03:21.681Z,100431.78
2023-05-04T17:04:53.553Z,100438.97
2023-05-04T17:06:25.357Z,100433.19
2023-05-04T17:07:57.144Z,100439.19
2023-05-04T17:09:28.904Z,100433.38
2023-05-04T17:11:00.670Z,100426.22
2023-05-04T17:12:32.451Z,100434.94
2023-05-04T17:14:04.225Z,100431.03
2023-05-04T17:15:35.993Z,100435.97
2023-05-04T17:17:08.467Z,100432.91
2023-05-04T17:18:40.283Z,100432.59
2023-05-04T17:20:15.218Z,100428.50
2023-05-04T17:21:47.137Z,100421.69
2023-05-04T17:23:18.944Z,100427.47
2023-05-04T17:24:50.884Z,100433.28
2023-05-04T17:26:22.670Z,100426.47
2023-05-04T17:27:54.920Z,100436.03
2023-05-04T17:29:26.880Z,100429.22
2023-05-04T17:30:58.681Z,100428.69
2023-05-04T17:32:31.075Z,100425.66
2023-05-04T17:34:02.993Z,100437.75
2023-05-04T17:35:34.857Z,100427.53
2023-05-04T17:37:06.660Z,100432.47
2023-05-04T17:38:39.330Z,100435.69
2023-05-04T17:40:11.908Z,100437.91
2023-05-04T17:41:43.645Z,100433.97
2023-05-04T17:43:15.617Z,100437.88